createdAt,value
2023-01-17T00:04:09.357Z,1.10
2023-01-17T00:09:33.872Z,0.80
2023-01-17T00:14:37.740Z,0.90
2023-01-17T00:20:01.867Z,0.80
2023-01-17T00:25:26.397Z,0.93
2023-01-17T00:30:29.249Z,0.93
2023-01-17T00:35:33.151Z,1.08
2023-01-17T00:40:40.737Z,1.00
2023-01-17T00:46:03.033Z,1.20
2023-01-17T00:51:24.986Z,1.20
2023-01-17T00:56:47.594Z,1.35
2023-01-17T01:02:09.021Z,1.20
2023-01-17T01:07:30.145Z,1.50
2023-01-17T01:12:52.771Z,1.33
2023-01-17T01:18:14.102Z,1.52
2023-01-17T01:23:36.968Z,1.50
2023-01-17T01:28:59.527Z,1.63
2023-01-17T01:34:03.619Z,1.50
2023-01-17T01:39:08.364Z,1.50
2023-01-17T01:44:49.440Z,1.80
2023-01-17T01:49:53.381Z,1.40
2023-01-17T01:55:02.754Z,1.50
2023-01-17T02:00:20.020Z,1.50
2023-01-17T02:05:26.876Z,1.48
2023-01-17T02:10:33.275Z,1.40
2023-01-17T02:15:50.005Z,1.38
2023-01-17T02:21:20.597Z,1.50
2023-01-17T02:26:54.865Z,1.15
2023-01-17T02:32:07.685Z,1.50
2023-01-17T02:37:19.523Z,1.33
2023-01-17T02:42:30.870Z,1.40
2023-01-17T02:47:36.257Z,1.40
2023-01-17T02:53:02.725Z,1.20
2023-01-17T02:58:33.528Z,1.30
2023-01-17T03:03:51.183Z,1.20
2023-01-17T03:13:59.282Z,1.20
2023-01-17T03:19:04.372Z,1.30
2023-01-17T03:24:08.821Z,1.42
2023-01-17T03:29:12.741Z,1.20
2023-01-17T03:34:17.676Z,1.10
2023-01-17T03:39:21.309Z,1.02
2023-01-17T03:44:24.898Z,1.00
2023-01-17T03:49:29.855Z,1.00
2023-01-17T03:54:33.504Z,1.08
2023-01-17T03:59:37.133Z,1.00
2023-01-17T04:04:42.163Z,1.08
2023-01-17T04:09:45.863Z,1.00
2023-01-17T04:14:49.519Z,1.00
2023-01-17T04:19:55.266Z,1.00
2023-01-17T04:24:59.337Z,1.00
2023-01-17T04:30:02.921Z,0.93
2023-01-17T04:35:09.469Z,0.98
2023-01-17T04:40:14.894Z,1.00
2023-01-17T04:45:18.949Z,0.88
2023-01-17T04:50:23.886Z,0.90
2023-01-17T04:55:27.727Z,1.05
2023-01-17T05:00:31.313Z,0.90
2023-01-17T05:05:36.231Z,1.20
2023-01-17T05:10:39.899Z,0.80
2023-01-17T05:15:43.717Z,0.90
2023-01-17T05:20:48.870Z,0.80
2023-01-17T05:25:56.684Z,0.85
2023-01-17T05:36:06.183Z,1.02
2023-01-17T05:41:09.960Z,0.75
2023-01-17T05:46:13.727Z,0.90
2023-01-17T05:51:18.676Z,0.80
2023-01-17T05:56:22.410Z,0.75
2023-01-17T06:01:26.071Z,0.93
2023-01-17T06:06:30.928Z,0.82
2023-01-17T06:11:34.416Z,0.98
2023-01-17T06:16:37.968Z,0.88
2023-01-17T06:21:42.889Z,0.82
2023-01-17T06:26:46.687Z,0.77
2023-01-17T06:31:50.522Z,0.80
2023-01-17T06:36:55.411Z,0.70
2023-01-17T06:41:59.097Z,0.90
2023-01-17T06:47:02.605Z,0.80
2023-01-17T06:52:07.687Z,0.80
2023-01-17T06:57:11.220Z,0.80
2023-01-17T07:02:14.743Z,0.90
2023-01-17T07:07:19.677Z,0.88
2023-01-17T07:12:23.209Z,0.70
2023-01-17T07:17:26.927Z,0.90
2023-01-17T07:22:32.123Z,0.80
2023-01-17T07:27:35.809Z,0.80
2023-01-17T07:32:40.735Z,0.85
2023-01-17T07:37:50.646Z,0.70
2023-01-17T07:42:54.539Z,0.80
2023-01-17T07:47:59.151Z,0.80
2023-01-17T07:53:05.485Z,0.80
2023-01-17T07:58:11.228Z,0.80
2023-01-17T08:03:18.617Z,0.85
2023-01-17T08:08:26.061Z,0.80
2023-01-17T08:13:30.016Z,0.88
2023-01-17T08:18:33.623Z,0.70
2023-01-17T08:23:47.294Z,1.00
2023-01-17T08:28:57.859Z,0.82
2023-01-17T08:34:01.677Z,0.77
2023-01-17T08:39:06.775Z,0.88
2023-01-17T08:44:10.309Z,0.80
2023-01-17T08:49:14.254Z,0.88
2023-01-17T08:54:22.346Z,0.90
2023-01-17T08:59:25.936Z,0.82
2023-01-17T09:04:29.762Z,0.80
2023-01-17T09:09:34.654Z,0.73
2023-01-17T09:14:38.346Z,1.00
2023-01-17T09:19:46.567Z,0.90
2023-01-17T09:24:51.495Z,0.90
2023-01-17T09:29:54.999Z,0.80
2023-01-17T09:35:00.757Z,0.90
2023-01-17T09:40:08.697Z,0.90
2023-01-17T09:50:31.688Z,1.20
2023-01-17T09:55:44.904Z,1.52
2023-01-17T10:01:08.244Z,2.10
2023-01-17T10:06:41.453Z,2.63
2023-01-17T10:12:08.559Z,2.50
2023-01-17T10:17:23.549Z,2.93
2023-01-17T10:23:09.232Z,2.67
2023-01-17T10:28:19.837Z,3.28
2023-01-17T10:33:29.912Z,2.10
2023-01-17T10:38:37.507Z,2.10
2023-01-17T10:43:56.831Z,1.90
2023-01-17T10:49:01.750Z,1.98
2023-01-17T10:54:21.104Z,2.00
2023-01-17T10:59:32.282Z,1.60
2023-01-17T11:04:39.381Z,1.58
2023-01-17T11:09:45.770Z,1.50
2023-01-17T11:15:07.009Z,1.60
2023-01-17T11:20:21.048Z,1.30
2023-01-17T11:25:26.202Z,1.33
2023-01-17T11:30:31.381Z,1.42
2023-01-17T11:35:37.581Z,1.30
2023-01-17T11:40:43.348Z,1.35
2023-01-17T11:46:03.686Z,1.30
2023-01-17T11:51:25.639Z,1.40
2023-01-17T11:56:34.112Z,2.00
2023-01-17T12:01:47.574Z,1.90
2023-01-17T12:07:14.934Z,2.30
2023-01-17T12:12:46.352Z,2.40
2023-01-17T12:18:25.137Z,2.38
2023-01-17T12:23:52.436Z,2.50
2023-01-17T12:29:41.566Z,3.20
2023-01-17T12:34:54.259Z,3.08
2023-01-17T12:40:04.869Z,3.20
2023-01-17T12:45:14.986Z,2.95
2023-01-17T12:50:34.120Z,2.72
2023-01-17T12:55:48.489Z,2.58
2023-01-17T13:01:02.983Z,2.60
2023-01-17T13:06:09.530Z,3.47
2023-01-17T13:11:21.583Z,3.78
2023-01-17T13:16:34.095Z,3.50
2023-01-17T13:21:39.409Z,3.40
2023-01-17T13:27:08.218Z,3.20
2023-01-17T13:32:33.552Z,3.13
2023-01-17T13:38:09.194Z,3.03
2023-01-17T13:43:18.774Z,2.80
2023-01-17T13:48:32.768Z,2.80
2023-01-17T13:53:59.536Z,2.40
2023-01-17T13:59:29.202Z,2.85
2023-01-17T14:10:41.371Z,2.20
2023-01-17T14:15:51.394Z,2.35
2023-01-17T14:21:12.584Z,2.45
2023-01-17T14:26:44.657Z,2.35
2023-01-17T14:31:49.315Z,2.13
2023-01-17T14:36:52.927Z,2.17
2023-01-17T14:41:58.386Z,2.10
2023-01-17T14:47:02.293Z,2.10
2023-01-17T14:52:07.614Z,2.13
2023-01-17T14:57:29.212Z,2.05
2023-01-17T15:02:33.422Z,2.17
2023-01-17T15:07:38.605Z,1.92
2023-01-17T15:12:46.983Z,1.90
2023-01-17T15:17:53.701Z,1.98
2023-01-17T15:22:57.388Z,1.70
2023-01-17T15:28:04.625Z,1.70
2023-01-17T15:33:16.302Z,1.70
2023-01-17T15:38:19.784Z,1.67
2023-01-17T15:43:35.861Z,1.67
2023-01-17T15:48:43.334Z,1.88
2023-01-17T15:53:47.020Z,1.83
2023-01-17T15:58:51.971Z,1.60
2023-01-17T16:03:56.810Z,1.65
2023-01-17T16:09:00.425Z,1.63
2023-01-17T16:14:07.931Z,1.48
2023-01-17T16:19:11.450Z,1.55
2023-01-17T16:24:16.756Z,1.60
2023-01-17T16:29:21.677Z,1.45
2023-01-17T16:34:25.273Z,1.50
2023-01-17T16:39:29.307Z,1.45
2023-01-17T16:44:34.612Z,1.60
2023-01-17T16:49:38.479Z,1.30
2023-01-17T16:54:42.145Z,1.40
2023-01-17T16:59:50.791Z,1.48
2023-01-17T17:04:54.847Z,1.40
2023-01-17T17:09:58.761Z,1.38
2023-01-17T17:15:03.848Z,1.50
2023-01-17T17:20:11.076Z,1.40
2023-01-17T17:25:15.953Z,1.43
2023-01-17T17:30:21.194Z,1.33
2023-01-17T17:35:24.864Z,1.40
2023-01-17T17:40:28.416Z,1.20
2023-01-17T17:45:33.281Z,1.45
2023-01-17T17:50:36.919Z,1.30
2023-01-17T17:55:40.984Z,1.42
2023-01-17T18:00:46.133Z,1.25
2023-01-17T18:05:49.652Z,1.25
2023-01-17T18:10:59.957Z,1.40
2023-01-17T18:16:09.695Z,1.20
2023-01-17T18:21:16.714Z,1.17
2023-01-17T18:26:23.898Z,1.35
2023-01-17T18:31:31.115Z,1.00
2023-01-17T18:36:35.826Z,1.13
2023-01-17T18:41:39.673Z,1.00
2023-01-17T18:46:44.728Z,0.90
2023-01-17T18:51:51.255Z,0.95
2023-01-17T18:56:56.610Z,1.10
2023-01-17T19:02:01.748Z,1.05
2023-01-17T19:07:05.364Z,0.90
2023-01-17T19:12:09.293Z,1.00
2023-01-17T19:17:14.238Z,1.00
2023-01-17T19:22:18.020Z,0.88
2023-01-17T19:27:21.672Z,1.00
2023-01-17T19:32:26.667Z,1.20
2023-01-17T19:37:30.377Z,0.98
2023-01-17T19:42:34.007Z,1.00
2023-01-17T19:47:40.069Z,0.98
2023-01-17T19:52:43.607Z,1.02
2023-01-17T19:57:47.346Z,1.10
2023-01-17T20:02:52.342Z,1.00
2023-01-17T20:07:56.091Z,1.10
2023-01-17T20:12:59.760Z,1.00
2023-01-17T20:18:05.851Z,1.13
2023-01-17T20:23:12.217Z,1.00
2023-01-17T20:28:15.769Z,1.15
2023-01-17T20:33:20.692Z,1.15
2023-01-17T20:38:27.530Z,1.10
2023-01-17T20:43:32.270Z,1.00
2023-01-17T20:48:39.133Z,1.10
2023-01-17T20:53:45.744Z,1.20
2023-01-17T20:58:51.573Z,1.30
2023-01-17T21:03:56.787Z,1.13
2023-01-17T21:09:01.042Z,1.10
2023-01-17T21:14:05.939Z,1.50
2023-01-17T21:19:12.109Z,1.30
2023-01-17T21:24:18.753Z,1.30
2023-01-17T21:29:28.633Z,1.33
2023-01-17T21:34:34.643Z,1.80
2023-01-17T21:39:39.714Z,2.30
2023-01-17T21:44:45.316Z,2.10
2023-01-17T21:49:50.319Z,2.40
2023-01-17T21:55:11.305Z,2.05
2023-01-17T22:00:16.923Z,2.33
2023-01-17T22:05:22.085Z,2.20
2023-01-17T22:10:27.254Z,2.10
2023-01-17T22:15:30.879Z,2.10
2023-01-17T22:20:39.895Z,2.20
2023-01-17T22:25:43.766Z,2.20
2023-01-17T22:30:47.573Z,2.30
2023-01-17T22:36:00.118Z,2.40
2023-01-17T22:41:08.014Z,2.42
2023-01-17T22:46:16.135Z,2.35
2023-01-17T22:51:24.117Z,2.30
2023-01-17T22:56:30.745Z,2.70
2023-01-17T23:01:34.597Z,2.38
2023-01-17T23:06:43.734Z,2.65
2023-01-17T23:11:52.848Z,2.63
2023-01-17T23:17:17.098Z,2.50
2023-01-17T23:22:26.888Z,2.65
2023-01-17T23:27:53.339Z,2.78
2023-01-17T23:33:00.835Z,2.70
2023-01-17T23:38:23.793Z,2.70
2023-01-17T23:43:27.419Z,2.65
2023-01-17T23:48:31.461Z,3.00
2023-01-17T23:53:37.855Z,2.90
2023-01-17T23:58:41.462Z,2.90
